createdAt,value
2019-05-09T00:02:13.214Z,99257.64
2019-05-09T00:04:46.486Z,99254.79
2019-05-09T00:07:19.882Z,99253.78
2019-05-09T00:09:53.461Z,99260.45
2019-05-09T00:12:26.864Z,99252.64
2019-05-09T00:15:00.331Z,99250.41
2019-05-09T00:17:33.967Z,99250.86
2019-05-09T00:20:15.259Z,99248.98
2019-05-09T00:22:48.671Z,99238.98
2019-05-09T00:25:23.611Z,99246.84
2019-05-09T00:27:57.082Z,99239.81
2019-05-09T00:30:48.674Z,99245.05
2019-05-09T00:33:23.699Z,99241.90
2019-05-09T00:35:58.073Z,99238.56
2019-05-09T00:38:38.614Z,99238.42
2019-05-09T00:41:13.945Z,99228.73
2019-05-09T00:43:51.449Z,99223.05
2019-05-09T00:46:28.937Z,99223.14
2019-05-09T00:49:05.120Z,99223.63
2019-05-09T00:51:38.639Z,99220.94
2019-05-09T00:54:13.523Z,99214.75
2019-05-09T00:56:46.988Z,99213.44
2019-05-09T00:59:20.367Z,99209.45
2019-05-09T01:01:54.456Z,99209.59
2019-05-09T01:04:27.863Z,99203.84
2019-05-09T01:07:03.256Z,99204.80
2019-05-09T01:09:36.406Z,99207.13
2019-05-09T01:12:09.818Z,99199.03
2019-05-09T01:14:43.364Z,99207.84
2019-05-09T01:17:16.797Z,99194.80
2019-05-09T01:19:50.331Z,99193.59
2019-05-09T01:22:23.734Z,99190.61
2019-05-09T01:24:57.128Z,99185.87
2019-05-09T01:27:30.614Z,99184.54
2019-05-09T01:30:05.149Z,99189.81
2019-05-09T01:32:45.754Z,99184.98
2019-05-09T01:35:19.147Z,99189.06
2019-05-09T01:37:53.899Z,99194.07
2019-05-09T01:40:27.367Z,99198.03
2019-05-09T01:43:00.762Z,99206.80
2019-05-09T01:45:34.385Z,99207.67
2019-05-09T01:48:07.826Z,99208.36
2019-05-09T01:50:43.124Z,99210.61
2019-05-09T01:53:17.986Z,99199.84
2019-05-09T01:56:00.695Z,99201.15
2019-05-09T01:58:34.880Z,99199.04
2019-05-09T02:01:09.710Z,99196.54
2019-05-09T02:03:44.270Z,99205.34
2019-05-09T02:06:18.262Z,99200.17
2019-05-09T02:08:54.263Z,99204.77
2019-05-09T02:11:39.462Z,99206.22
2019-05-09T02:14:04.011Z,99211.33
2019-05-09T02:16:55.076Z,99207.19
2019-05-09T02:19:45.149Z,99205.66
2019-05-09T02:22:34.443Z,99205.27
2019-05-09T02:25:09.467Z,99198.92
2019-05-09T02:27:43.642Z,99206.55
2019-05-09T02:30:17.764Z,99202.81
2019-05-09T02:32:54.485Z,99209.05
2019-05-09T02:35:29.316Z,99215.72
2019-05-09T02:38:01.498Z,99214.45
2019-05-09T02:40:34.893Z,99211.80
2019-05-09T02:43:09.914Z,99209.56
2019-05-09T02:45:52.686Z,99206.59
2019-05-09T02:48:23.056Z,99212.89
2019-05-09T02:50:59.841Z,99209.98
2019-05-09T02:53:31.665Z,99207.11
2019-05-09T02:56:05.107Z,99213.16
2019-05-09T02:58:48.754Z,99217.94
2019-05-09T03:01:23.800Z,99216.58
2019-05-09T03:03:58.880Z,99226.17
2019-05-09T03:06:32.967Z,99227.04
2019-05-09T03:09:08.923Z,99229.28
2019-05-09T03:11:42.751Z,99229.97
2019-05-09T03:14:19.199Z,99235.95
2019-05-09T03:16:51.277Z,99237.23
2019-05-09T03:19:24.675Z,99232.27
2019-05-09T03:22:02.594Z,99234.39
2019-05-09T03:24:39.161Z,99244.27
2019-05-09T03:27:12.794Z,99240.17
2019-05-09T03:29:48.848Z,99238.05
2019-05-09T03:32:22.521Z,99232.72
2019-05-09T03:34:57.962Z,99230.91
2019-05-09T03:37:31.061Z,99237.27
2019-05-09T03:40:05.012Z,99228.05
2019-05-09T03:42:43.602Z,99231.79
2019-05-09T03:45:15.415Z,99225.09
2019-05-09T03:47:50.473Z,99220.99
2019-05-09T03:50:23.873Z,99216.93
2019-05-09T03:52:57.957Z,99213.81
2019-05-09T03:55:32.983Z,99211.70
2019-05-09T03:58:10.988Z,99208.27
2019-05-09T04:00:44.367Z,99212.12
2019-05-09T04:03:19.836Z,99208.19
2019-05-09T04:05:59.119Z,99200.86
2019-05-09T04:08:28.332Z,99203.91
2019-05-09T04:11:01.783Z,99209.94
2019-05-09T04:13:38.528Z,99200.36
2019-05-09T04:16:12.021Z,99206.02
2019-05-09T04:18:47.894Z,99207.77
2019-05-09T04:21:20.528Z,99206.52
2019-05-09T04:23:53.935Z,99206.83
2019-05-09T04:26:45.356Z,99208.08
2019-05-09T04:29:18.784Z,99198.41
2019-05-09T04:31:52.165Z,99196.66
2019-05-09T04:34:27.551Z,99198.61
2019-05-09T04:37:00.699Z,99197.52
2019-05-09T04:39:34.201Z,99189.11
2019-05-09T04:42:08.368Z,99199.58
2019-05-09T04:44:43.518Z,99195.71
2019-05-09T04:47:17.397Z,99197.41
2019-05-09T04:49:50.919Z,99202.34
2019-05-09T04:52:24.327Z,99200.36
2019-05-09T04:54:57.769Z,99200.36
2019-05-09T04:57:31.127Z,99202.65
2019-05-09T05:00:10.045Z,99202.65
2019-05-09T05:02:48.478Z,99206.46
2019-05-09T05:05:21.951Z,99197.58
2019-05-09T05:07:57.311Z,99200.86
2019-05-09T05:10:30.449Z,99214.73
2019-05-09T05:13:03.833Z,99211.23
2019-05-09T05:15:37.801Z,99212.19
2019-05-09T05:18:11.207Z,99212.84
2019-05-09T05:20:44.642Z,99212.43
2019-05-09T05:23:19.686Z,99210.61
2019-05-09T05:25:53.116Z,99210.84
2019-05-09T05:28:27.823Z,99215.13
2019-05-09T05:31:01.333Z,99213.89
2019-05-09T05:33:39.274Z,99210.26
2019-05-09T05:36:14.399Z,99211.42
2019-05-09T05:38:48.057Z,99210.88
2019-05-09T05:41:21.571Z,99215.47
2019-05-09T05:43:54.939Z,99212.66
2019-05-09T05:46:50.429Z,99206.23
2019-05-09T05:49:21.405Z,99209.02
2019-05-09T05:51:54.809Z,99214.97
2019-05-09T05:54:28.190Z,99208.19
2019-05-09T05:57:01.597Z,99213.09
2019-05-09T05:59:38.207Z,99219.03
2019-05-09T06:02:10.181Z,99214.44
2019-05-09T06:04:43.591Z,99219.69
2019-05-09T06:07:18.497Z,99222.97
2019-05-09T06:09:51.967Z,99220.17
2019-05-09T06:12:27.483Z,99223.90
2019-05-09T06:15:00.507Z,99226.41
2019-05-09T06:17:33.908Z,99224.34
2019-05-09T06:20:08.990Z,99220.90
2019-05-09T06:22:42.594Z,99215.84
2019-05-09T06:25:20.094Z,99216.19
2019-05-09T06:27:51.195Z,99213.41
2019-05-09T06:30:29.200Z,99216.19
2019-05-09T06:33:04.892Z,99218.63
2019-05-09T06:35:38.048Z,99218.85
2019-05-09T06:38:11.483Z,99220.73
2019-05-09T06:40:44.905Z,99222.08
2019-05-09T06:43:19.780Z,99222.81
2019-05-09T06:46:10.797Z,99235.32
2019-05-09T06:48:44.209Z,99233.88
2019-05-09T06:51:21.002Z,99234.55
2019-05-09T06:53:52.741Z,99234.19
2019-05-09T06:56:28.316Z,99237.16
2019-05-09T06:59:01.259Z,99227.58
2019-05-09T07:01:41.982Z,99235.94
2019-05-09T07:04:19.820Z,99225.88
2019-05-09T07:06:54.846Z,99223.11
2019-05-09T07:09:32.321Z,99216.09
2019-05-09T07:12:07.880Z,99213.23
2019-05-09T07:14:41.890Z,99210.46
2019-05-09T07:17:15.500Z,99214.47
2019-05-09T07:19:49.203Z,99215.63
2019-05-09T07:22:30.035Z,99209.95
2019-05-09T07:25:10.210Z,99208.78
2019-05-09T07:27:44.318Z,99209.84
2019-05-09T07:30:29.231Z,99195.95
2019-05-09T07:33:04.296Z,99189.85
2019-05-09T07:35:38.314Z,99188.38
2019-05-09T07:38:11.883Z,99187.72
2019-05-09T07:40:47.767Z,99183.94
2019-05-09T07:43:21.275Z,99188.67
2019-05-09T07:46:12.418Z,99190.63
2019-05-09T07:48:48.374Z,99193.20
2019-05-09T07:51:22.036Z,99190.62
2019-05-09T07:53:55.460Z,99186.81
2019-05-09T07:56:28.863Z,99178.59
2019-05-09T07:59:02.297Z,99176.09
2019-05-09T08:01:38.258Z,99175.20
2019-05-09T08:04:10.888Z,99177.95
2019-05-09T08:06:44.390Z,99178.66
2019-05-09T08:09:18.678Z,99169.38
2019-05-09T08:11:52.286Z,99169.52
2019-05-09T08:14:27.955Z,99173.00
2019-05-09T08:17:00.932Z,99169.55
2019-05-09T08:19:34.359Z,99165.61
2019-05-09T08:22:08.109Z,99159.33
2019-05-09T08:24:41.544Z,99158.64
2019-05-09T08:27:17.346Z,99154.87
2019-05-09T08:29:50.159Z,99151.38
2019-05-09T08:32:23.550Z,99150.00
2019-05-09T08:34:57.620Z,99153.84
2019-05-09T08:37:31.117Z,99149.12
2019-05-09T08:40:08.001Z,99153.13
2019-05-09T08:42:41.020Z,99156.20
2019-05-09T08:45:26.868Z,99154.37
2019-05-09T08:47:49.629Z,99149.45
2019-05-09T08:50:24.814Z,99150.87
2019-05-09T08:52:58.235Z,99143.08
2019-05-09T08:55:31.629Z,99144.88
2019-05-09T08:58:05.045Z,99140.91
2019-05-09T09:00:39.212Z,99133.15
2019-05-09T09:03:12.694Z,99141.83
2019-05-09T09:05:48.352Z,99148.17
2019-05-09T09:08:21.242Z,99145.38
2019-05-09T09:10:54.657Z,99144.71
2019-05-09T09:13:28.417Z,99148.86
2019-05-09T09:16:14.507Z,99147.30
2019-05-09T09:18:38.784Z,99136.79
2019-05-09T09:21:12.417Z,99135.08
2019-05-09T09:23:49.661Z,99134.95
2019-05-09T09:26:20.986Z,99121.89
2019-05-09T09:28:54.407Z,99119.05
2019-05-09T09:31:28.519Z,99118.48
2019-05-09T09:34:01.965Z,99116.95
2019-05-09T09:36:35.377Z,99125.29
2019-05-09T09:39:08.834Z,99122.21
2019-05-09T09:41:42.268Z,99115.45
2019-05-09T09:44:17.895Z,99113.59
2019-05-09T09:46:50.877Z,99116.02
2019-05-09T09:49:24.255Z,99106.67
2019-05-09T09:51:58.246Z,99105.70
2019-05-09T09:54:31.745Z,99090.33
2019-05-09T09:57:05.177Z,99088.36
2019-05-09T09:59:42.945Z,99082.34
2019-05-09T10:02:18.030Z,99085.30
2019-05-09T10:04:51.496Z,99077.63
2019-05-09T10:07:24.896Z,99071.03
2019-05-09T10:09:58.542Z,99072.12
2019-05-09T10:12:32.620Z,99074.83
2019-05-09T10:15:14.276Z,99068.17
2019-05-09T10:17:49.346Z,99065.22
2019-05-09T10:20:30.407Z,99056.63
2019-05-09T10:23:11.744Z,99058.25
2019-05-09T10:25:39.157Z,99061.87
2019-05-09T10:28:12.567Z,99056.13
2019-05-09T10:30:48.372Z,99063.77
2019-05-09T10:33:21.103Z,99055.98
2019-05-09T10:35:54.537Z,99058.22
2019-05-09T10:38:28.152Z,99054.88
2019-05-09T10:41:02.134Z,99045.72
2019-05-09T10:43:43.383Z,99050.61
2019-05-09T10:46:19.477Z,99051.47
2019-05-09T10:48:54.759Z,99049.14
2019-05-09T10:51:28.153Z,99053.50
2019-05-09T10:54:01.643Z,99049.92
2019-05-09T10:56:35.043Z,99052.30
2019-05-09T10:59:08.455Z,99047.80
2019-05-09T11:01:41.869Z,99046.30
2019-05-09T11:04:15.268Z,99047.63
2019-05-09T11:06:48.681Z,99048.27
2019-05-09T11:09:22.281Z,99047.63
2019-05-09T11:11:58.711Z,99053.50
2019-05-09T11:14:36.858Z,99047.48
2019-05-09T11:17:11.586Z,99053.10
2019-05-09T11:19:41.098Z,99059.19
2019-05-09T11:22:14.471Z,99057.42
2019-05-09T11:24:51.150Z,99048.55
2019-05-09T11:27:23.147Z,99049.49
2019-05-09T11:29:57.846Z,99045.55
2019-05-09T11:32:31.537Z,99044.23
2019-05-09T11:35:08.954Z,99026.51
2019-05-09T11:37:42.717Z,99035.75
2019-05-09T11:40:16.362Z,99037.73
2019-05-09T11:42:49.755Z,99033.28
2019-05-09T11:45:23.231Z,99022.33
2019-05-09T11:47:58.242Z,99020.83
2019-05-09T11:50:31.933Z,99022.92
2019-05-09T11:53:05.409Z,99028.70
2019-05-09T11:55:43.114Z,99025.92
2019-05-09T11:58:13.944Z,99020.83
2019-05-09T12:00:48.257Z,99022.78
2019-05-09T12:03:21.834Z,99021.80
2019-05-09T12:05:55.285Z,99012.01
2019-05-09T12:08:28.750Z,99002.44
2019-05-09T12:11:02.169Z,99006.62
2019-05-09T12:13:37.817Z,99001.64
2019-05-09T12:16:10.726Z,98996.59
2019-05-09T12:18:44.112Z,98999.02
2019-05-09T12:21:19.020Z,98991.41
2019-05-09T12:23:52.908Z,98986.41
2019-05-09T12:26:28.842Z,98985.70
2019-05-09T12:29:01.600Z,98990.42
2019-05-09T12:31:34.983Z,98990.61
2019-05-09T12:34:09.323Z,98984.98
2019-05-09T12:36:42.804Z,98979.41
2019-05-09T12:39:18.732Z,98975.45
2019-05-09T12:41:51.334Z,98978.94
2019-05-09T12:44:25.261Z,98975.56
2019-05-09T12:46:58.866Z,98969.05
2019-05-09T12:49:32.279Z,98952.31
2019-05-09T12:52:08.030Z,98957.19
2019-05-09T12:54:40.861Z,98957.85
2019-05-09T12:57:14.298Z,98961.05
2019-05-09T12:59:52.486Z,98958.13
2019-05-09T13:02:22.836Z,98955.05
2019-05-09T13:04:56.405Z,98957.37
2019-05-09T13:07:29.961Z,98960.78
2019-05-09T13:10:03.840Z,98958.22
2019-05-09T13:12:38.816Z,98964.66
2019-05-09T13:15:12.564Z,98959.93
2019-05-09T13:17:48.069Z,98950.19
2019-05-09T13:20:21.657Z,98960.27
2019-05-09T13:22:55.048Z,98955.30
2019-05-09T13:25:28.995Z,98961.66
2019-05-09T13:28:02.448Z,98965.75
2019-05-09T13:30:38.004Z,98972.11
2019-05-09T13:33:11.159Z,98965.08
2019-05-09T13:35:44.618Z,98961.36
2019-05-09T13:38:18.097Z,98961.98
2019-05-09T13:40:53.433Z,98962.81
2019-05-09T13:43:28.107Z,98960.43
2019-05-09T13:46:01.660Z,98960.10
2019-05-09T13:48:57.074Z,98953.36
2019-05-09T13:51:10.309Z,98962.56
2019-05-09T13:53:43.702Z,98971.23
2019-05-09T13:56:17.875Z,98970.55
2019-05-09T13:58:51.400Z,98961.43
2019-05-09T14:01:24.892Z,98971.42
2019-05-09T14:03:58.303Z,98970.17
2019-05-09T14:06:31.692Z,98978.56
2019-05-09T14:09:10.363Z,98977.61
2019-05-09T14:11:43.637Z,98979.23
2019-05-09T14:14:17.815Z,98979.27
2019-05-09T14:16:51.639Z,98981.77
2019-05-09T14:19:35.945Z,98987.80
2019-05-09T14:22:00.195Z,98992.61
2019-05-09T14:24:33.591Z,98993.38
2019-05-09T14:27:08.274Z,98995.28
2019-05-09T14:29:41.785Z,98999.11
2019-05-09T14:32:15.241Z,99006.08
2019-05-09T14:34:48.657Z,99006.87
2019-05-09T14:37:22.090Z,99019.42
2019-05-09T14:39:58.860Z,99020.73
2019-05-09T14:42:30.666Z,99025.93
2019-05-09T14:45:08.289Z,99024.62
2019-05-09T14:47:42.471Z,99035.42
2019-05-09T14:50:18.047Z,99034.00
2019-05-09T14:52:51.260Z,99040.05
2019-05-09T14:55:24.742Z,99051.59
2019-05-09T14:57:58.221Z,99059.04
2019-05-09T15:00:31.639Z,99068.09
2019-05-09T15:03:05.066Z,99078.40
2019-05-09T15:05:38.512Z,99079.48
2019-05-09T15:08:11.955Z,99072.67
2019-05-09T15:10:45.443Z,99083.06
2019-05-09T15:13:18.912Z,99087.42
2019-05-09T15:15:52.368Z,99089.05
2019-05-09T15:18:25.775Z,99101.23
2019-05-09T15:20:59.161Z,99108.39
2019-05-09T15:23:32.635Z,99102.84
2019-05-09T15:26:07.717Z,99107.73
2019-05-09T15:28:41.161Z,99118.27
2019-05-09T15:31:14.540Z,99117.62
2019-05-09T15:33:48.585Z,99120.73
2019-05-09T15:36:22.262Z,99125.98
2019-05-09T15:38:55.671Z,99126.80
2019-05-09T15:41:29.148Z,99118.63
2019-05-09T15:44:02.581Z,99135.05
2019-05-09T15:46:40.667Z,99135.05
2019-05-09T15:49:14.170Z,99135.10
2019-05-09T15:51:47.878Z,99140.47
2019-05-09T15:54:21.357Z,99147.02
2019-05-09T15:56:54.800Z,99156.20
2019-05-09T15:59:28.327Z,99156.75
2019-05-09T16:02:01.816Z,99162.13
2019-05-09T16:04:35.206Z,99167.41
2019-05-09T16:07:08.758Z,99172.14
2019-05-09T16:09:42.193Z,99174.94
2019-05-09T16:12:18.307Z,99178.02
2019-05-09T16:14:50.870Z,99174.02
2019-05-09T16:17:24.269Z,99182.59
2019-05-09T16:19:57.829Z,99190.13
2019-05-09T16:22:31.284Z,99197.77
2019-05-09T16:25:06.541Z,99195.86
2019-05-09T16:27:40.073Z,99188.80
2019-05-09T16:30:13.614Z,99192.81
2019-05-09T16:32:48.041Z,99191.56
2019-05-09T16:35:21.749Z,99198.05
2019-05-09T16:38:02.784Z,99206.98
2019-05-09T16:40:30.325Z,99210.72
2019-05-09T16:43:03.701Z,99217.34
2019-05-09T16:45:37.880Z,99226.26
2019-05-09T16:48:11.662Z,99226.92
2019-05-09T16:50:57.775Z,99236.27
2019-05-09T16:53:20.962Z,99226.53
2019-05-09T16:55:54.383Z,99227.53
2019-05-09T16:58:27.764Z,99227.53
2019-05-09T17:01:01.270Z,99231.16
2019-05-09T17:03:34.758Z,99235.56
2019-05-09T17:06:08.287Z,99243.98
2019-05-09T17:08:41.667Z,99256.27
2019-05-09T17:11:15.146Z,99264.97
2019-05-09T17:13:48.570Z,99257.84
2019-05-09T17:16:21.969Z,99264.42
2019-05-09T17:18:58.010Z,99268.93
2019-05-09T17:21:32.228Z,99270.73
2019-05-09T17:24:08.255Z,99273.73
2019-05-09T17:26:41.805Z,99278.81
2019-05-09T17:29:18.719Z,99289.52
2019-05-09T17:31:52.201Z,99298.05
2019-05-09T17:34:25.704Z,99300.39
2019-05-09T17:36:59.125Z,99311.27
2019-05-09T17:39:32.616Z,99316.69
2019-05-09T17:42:07.648Z,99326.00
2019-05-09T17:44:41.092Z,99326.00
2019-05-09T17:47:14.519Z,99328.94
2019-05-09T17:49:48.315Z,99340.48
2019-05-09T17:52:21.835Z,99356.98
2019-05-09T17:54:55.225Z,99352.95
2019-05-09T17:57:28.667Z,99367.35
2019-05-09T18:00:02.043Z,99368.51
2019-05-09T18:02:35.537Z,99376.87
2019-05-09T18:05:09.074Z,99371.60
2019-05-09T18:07:42.497Z,99375.69
2019-05-09T18:10:18.274Z,99380.42
2019-05-09T18:12:51.595Z,99391.59
2019-05-09T18:15:25.138Z,99385.16
2019-05-09T18:17:58.756Z,99391.47
2019-05-09T18:20:32.252Z,99392.95
2019-05-09T18:23:08.201Z,99405.19
2019-05-09T18:25:41.239Z,99407.70
2019-05-09T18:28:14.862Z,99412.72
2019-05-09T18:30:48.306Z,99409.35
2019-05-09T18:33:32.398Z,99409.26
2019-05-09T18:36:05.950Z,99410.09
2019-05-09T18:38:39.407Z,99417.16
2019-05-09T18:41:12.831Z,99423.75
2019-05-09T18:43:47.934Z,99423.63
2019-05-09T18:46:21.751Z,99430.33
2019-05-09T18:48:55.300Z,99435.50
2019-05-09T18:51:28.921Z,99439.73
2019-05-09T18:54:02.347Z,99447.49
2019-05-09T18:56:35.831Z,99455.52
2019-05-09T18:59:09.331Z,99455.84
2019-05-09T19:01:42.926Z,99462.58
2019-05-09T19:04:16.341Z,99465.67
2019-05-09T19:06:49.824Z,99462.10
2019-05-09T19:09:23.308Z,99462.64
2019-05-09T19:11:56.713Z,99470.80
2019-05-09T19:14:30.234Z,99480.01
2019-05-09T19:17:21.256Z,99486.70
2019-05-09T19:20:11.447Z,99488.95
2019-05-09T19:22:44.843Z,99492.42
2019-05-09T19:25:18.320Z,99489.86
2019-05-09T19:27:51.694Z,99497.64
2019-05-09T19:30:31.242Z,99503.29
2019-05-09T19:33:05.019Z,99508.89
2019-05-09T19:35:38.461Z,99504.75
2019-05-09T19:38:11.860Z,99503.44
2019-05-09T19:40:45.372Z,99513.70
2019-05-09T19:43:18.826Z,99520.98
2019-05-09T19:45:52.295Z,99529.23
2019-05-09T19:48:25.770Z,99531.50
2019-05-09T19:50:59.254Z,99543.17
2019-05-09T19:53:32.686Z,99552.89
2019-05-09T19:56:06.245Z,99562.69
2019-05-09T19:58:39.674Z,99567.16
2019-05-09T20:01:13.396Z,99568.58
2019-05-09T20:03:46.838Z,99579.55
2019-05-09T20:06:20.333Z,99578.72
2019-05-09T20:08:53.980Z,99586.74
2019-05-09T20:11:45.238Z,99580.78
2019-05-09T20:14:23.165Z,99583.55
2019-05-09T20:16:57.771Z,99594.16
2019-05-09T20:19:31.249Z,99600.03
2019-05-09T20:22:04.965Z,99610.91
2019-05-09T20:24:38.566Z,99606.69
2019-05-09T20:27:12.338Z,99603.48
2019-05-09T20:29:45.776Z,99606.33
2019-05-09T20:32:19.263Z,99608.16
2019-05-09T20:34:52.683Z,99609.34
2019-05-09T20:37:26.297Z,99611.14
2019-05-09T20:39:59.894Z,99615.79
2019-05-09T20:42:33.622Z,99617.74
2019-05-09T20:45:08.066Z,99627.55
2019-05-09T20:47:41.738Z,99623.16
2019-05-09T20:50:15.467Z,99627.80
2019-05-09T20:52:49.066Z,99627.84
2019-05-09T20:55:22.681Z,99629.95
2019-05-09T20:57:56.309Z,99630.95
2019-05-09T21:00:30.330Z,99638.55
2019-05-09T21:03:07.560Z,99637.84
2019-05-09T21:05:39.274Z,99637.19
2019-05-09T21:08:12.909Z,99648.98
2019-05-09T21:10:46.497Z,99651.35
2019-05-09T21:13:20.120Z,99651.41
2019-05-09T21:15:53.743Z,99659.52
2019-05-09T21:18:27.494Z,99671.42
2019-05-09T21:21:01.168Z,99669.90
2019-05-09T21:23:34.782Z,99676.47
2019-05-09T21:26:08.430Z,99682.66
2019-05-09T21:28:42.059Z,99684.17
2019-05-09T21:31:15.745Z,99692.45
2019-05-09T21:33:49.410Z,99685.49
2019-05-09T21:36:22.839Z,99691.55
2019-05-09T21:38:56.229Z,99702.66
2019-05-09T21:41:29.645Z,99710.78
2019-05-09T21:44:03.100Z,99708.06
2019-05-09T21:46:36.528Z,99713.55
2019-05-09T21:49:09.934Z,99720.90
2019-05-09T21:51:43.364Z,99722.87
2019-05-09T21:54:16.746Z,99731.14
2019-05-09T21:56:50.163Z,99729.38
2019-05-09T21:59:23.552Z,99736.05
2019-05-09T22:01:57.190Z,99732.09
2019-05-09T22:04:30.592Z,99743.98
2019-05-09T22:07:04.087Z,99743.69
2019-05-09T22:09:37.514Z,99747.42
2019-05-09T22:12:11.181Z,99748.95
2019-05-09T22:14:44.658Z,99756.89
2019-05-09T22:17:25.589Z,99757.76
2019-05-09T22:19:58.988Z,99758.77
2019-05-09T22:22:32.401Z,99751.86
2019-05-09T22:25:08.760Z,99757.69
2019-05-09T22:27:42.171Z,99754.25
2019-05-09T22:30:16.027Z,99754.70
2019-05-09T22:32:49.484Z,99761.55
2019-05-09T22:35:22.877Z,99759.45
2019-05-09T22:37:56.305Z,99764.25
2019-05-09T22:40:29.718Z,99765.06
2019-05-09T22:43:03.170Z,99757.91
2019-05-09T22:45:36.582Z,99766.73
2019-05-09T22:48:10.074Z,99769.42
2019-05-09T22:50:43.497Z,99768.64
2019-05-09T22:53:16.912Z,99768.77
2019-05-09T22:55:50.309Z,99765.18
2019-05-09T22:58:23.735Z,99770.27
2019-05-09T23:00:57.134Z,99770.27
2019-05-09T23:03:30.560Z,99770.68
2019-05-09T23:06:04.109Z,99773.81
2019-05-09T23:08:37.519Z,99775.43
2019-05-09T23:11:10.925Z,99779.80
2019-05-09T23:13:53.051Z,99778.87
2019-05-09T23:16:28.230Z,99783.88
2019-05-09T23:19:01.699Z,99791.40
2019-05-09T23:21:35.194Z,99792.27
2019-05-09T23:24:10.528Z,99796.95
2019-05-09T23:26:43.938Z,99800.53
2019-05-09T23:29:17.342Z,99800.17
2019-05-09T23:32:07.085Z,99795.28
2019-05-09T23:34:40.509Z,99796.23
2019-05-09T23:37:13.918Z,99797.36
2019-05-09T23:39:49.017Z,99808.38
2019-05-09T23:42:22.481Z,99812.03
2019-05-09T23:44:55.896Z,99816.02
2019-05-09T23:47:29.293Z,99812.84
2019-05-09T23:50:02.719Z,99821.33
2019-05-09T23:52:36.111Z,99829.85
2019-05-09T23:55:27.406Z,99837.50
2019-05-09T23:58:18.534Z,99844.88
